Kezdőlap
METAR-TAF:

METAR-TAF

Repülőterek :

Altus Air Force Base

Altus, Oklahoma, Amerikai Egyesült Államok

földrajzi szélesség: 34-39N, földrajzi hosszúság: 099-16W, magasság: 420 m

Jelenlegi meteorológiai megfigyelések

A jelentés 34 perccel ezelõtt készült, 14:56 UTC
Déli szél 17 kt széllökések: 21 kt
Hőmérséklet 26°C
Páratartalom 70%
Légköri nyomás 1009 hPa
Látótávolság: 16.1 km
Szakadozott felhőzet 2900 lábon
Borult 3700 lábon

METAR: KLTS 181456Z 17017G21KT 10SM BKN029 OVC037 26/20 A2979 RMK CIG 028V037 SLP068 T02640200 52011 $

Idő: 10:30 (15:30 UTC)


TAF: hiányzik

Meteorológiai megfigyelések és előrejelzések több, mint 4000 repülőtéren (METAR és TAF jelentéseket).

A térképen piros és sárga pontok jelzik az elérhető meteorológiai állomásokat.

Mozgassa az egeret a pont fölött, hogy megjelenjen az állomás neve.

Azután kattintson az időjárási megfigyelések és előrejelzések megtekintéséhez.

A térkép megváltoztatása: kattintson a fekete keresztel jelölt zöld gombra ráközelítéshez, a vonallal jelölt zöld gombra távolításhoz, vagy a zöld nyilakra a szomszédos térképek eléréséhez.


METAR-TAF: